Time;durP1;ratioP1;P1;durP2;ratioP2;P2;SDS_P1;SDS_P2;PMS_P1;PMS_P2;Temp;Humidity;BMP_temperature;BMP_pressure;BME280_temperature;BME280_humidity;BME280_pressure;Samples;Min_cycle;Max_cycle;Signal;HPM_P1;HPM_P2
2021/12/06 00:01:21;;;;;;;34.77;22.33;;;;;;;;;;5005149;28;20205;-68
2021/12/06 00:03:49;;;;;;;32.33;22.23;;;;;;;;;;4990131;28;20217;-68
2021/12/06 00:06:15;;;;;;;31.80;22.10;;;;;;;;;;4998283;28;20327;-68
2021/12/06 00:08:40;;;;;;;33.27;22.60;;;;;;;;;;4997736;28;20638;-68
2021/12/06 00:11:08;;;;;;;34.63;21.70;;;;;;;;;;4997710;28;20244;-68
2021/12/06 00:13:35;;;;;;;32.90;23.20;;;;;;;;;;4988472;28;20211;-68
2021/12/06 00:16:06;;;;;;;32.43;22.00;;;;;;;;;;5006483;28;20232;-67
2021/12/06 00:18:31;;;;;;;28.90;20.67;;;;;;;;;;5010681;28;20204;-68
2021/12/06 00:20:56;;;;;;;33.07;22.17;;;;;;;;;;4992346;28;20208;-68
2021/12/06 00:23:21;;;;;;;33.43;21.83;;;;;;;;;;5008796;28;20211;-68
2021/12/06 00:25:47;;;;;;;35.37;22.27;;;;;;;;;;4993069;28;20314;-68
2021/12/06 00:28:12;;;;;;;29.73;22.20;;;;;;;;;;5002572;28;20606;-68
2021/12/06 00:30:37;;;;;;;31.53;21.10;;;;;;;;;;5001464;28;20208;-68
2021/12/06 00:33:03;;;;;;;35.30;23.55;;;;;;;;;;5001274;28;20754;-68
2021/12/06 00:35:29;;;;;;;34.10;23.10;;;;;;;;;;4990751;28;20761;-68
2021/12/06 00:37:57;;;;;;;40.87;24.43;;;;;;;;;;5009673;28;20295;-69
2021/12/06 00:40:24;;;;;;;36.03;24.17;;;;;;;;;;4994345;28;20213;-68
2021/12/06 00:42:49;;;;;;;37.33;24.27;;;;;;;;;;4992754;28;20213;-68
2021/12/06 00:45:14;;;;;;;37.70;25.03;;;;;;;;;;4991664;28;20579;-68
2021/12/06 00:47:40;;;;;;;42.27;25.87;;;;;;;;;;5010090;28;20197;-68
2021/12/06 00:50:05;;;;;;;43.73;26.30;;;;;;;;;;5005265;28;20592;-68
2021/12/06 00:52:30;;;;;;;41.83;26.50;;;;;;;;;;5001163;28;20355;-68
2021/12/06 00:54:56;;;;;;;45.80;27.80;;;;;;;;;;5000934;28;20196;-68
2021/12/06 00:57:21;;;;;;;42.63;27.60;;;;;;;;;;4989188;28;20212;-68
2021/12/06 00:59:46;;;;;;;46.23;28.77;;;;;;;;;;5009300;28;20338;-68
2021/12/06 01:02:12;;;;;;;48.33;29.43;;;;;;;;;;4992820;28;20240;-68
2021/12/06 01:04:37;;;;;;;44.43;29.30;;;;;;;;;;5007649;28;20220;-68
2021/12/06 01:07:03;;;;;;;49.60;29.43;;;;;;;;;;4992862;28;20311;-68
2021/12/06 01:09:28;;;;;;;48.60;27.83;;;;;;;;;;5008961;28;20679;-68
2021/12/06 01:11:54;;;;;;;41.17;26.00;;;;;;;;;;5005735;28;20215;-69
2021/12/06 01:14:19;;;;;;;48.17;27.93;;;;;;;;;;5000418;28;20578;-68
2021/12/06 01:16:44;;;;;;;44.83;28.00;;;;;;;;;;4984482;28;20201;-68
2021/12/06 01:19:10;;;;;;;43.33;27.40;;;;;;;;;;5001914;28;20209;-68
2021/12/06 01:21:48;;;;;;;45.47;27.57;;;;;;;;;;4991697;28;20204;-68
2021/12/06 01:24:17;;;;;;;48.37;27.70;;;;;;;;;;4990980;28;20215;-68
2021/12/06 01:27:09;;;;;;;48.00;29.27;;;;;;;;;;5008842;28;20239;-68
2021/12/06 01:32:26;;;;;;;54.37;29.93;;;;;;;;;;5008011;28;20203;-67
2021/12/06 01:40:22;;;;;;;48.90;29.10;;;;;;;;;;4998931;28;20221;-59
2021/12/06 01:42:47;;;;;;;51.40;30.80;;;;;;;;;;5007381;28;20310;-58
2021/12/06 01:45:13;;;;;;;50.37;29.67;;;;;;;;;;5008086;28;20255;-58
2021/12/06 01:47:38;;;;;;;53.30;30.43;;;;;;;;;;5008220;28;20579;-58
2021/12/06 01:50:06;;;;;;;49.93;28.97;;;;;;;;;;5007722;28;20220;-58
2021/12/06 01:52:33;;;;;;;53.33;29.73;;;;;;;;;;4990674;28;20676;-58
2021/12/06 01:54:59;;;;;;;49.97;29.30;;;;;;;;;;4991159;28;20609;-58
2021/12/06 01:57:24;;;;;;;57.77;30.57;;;;;;;;;;5004053;28;20757;-58
2021/12/06 01:59:50;;;;;;;53.20;31.10;;;;;;;;;;4998987;28;20212;-58
2021/12/06 02:02:16;;;;;;;49.77;29.53;;;;;;;;;;4981489;28;20212;-58
2021/12/06 02:04:41;;;;;;;52.10;30.00;;;;;;;;;;5003701;28;20310;-58
2021/12/06 02:07:07;;;;;;;53.40;31.00;;;;;;;;;;5005955;28;20231;-59
2021/12/06 02:09:32;;;;;;;49.60;29.23;;;;;;;;;;5007080;28;20220;-58
2021/12/06 02:12:00;;;;;;;52.10;30.90;;;;;;;;;;5007311;28;20268;-58
2021/12/06 02:14:33;;;;;;;53.73;31.00;;;;;;;;;;5015728;28;20217;-58
2021/12/06 02:17:07;;;;;;;57.83;31.02;;;;;;;;;;5010142;28;20220;-58
2021/12/06 02:19:35;;;;;;;53.73;30.33;;;;;;;;;;5007032;28;20667;-58
2021/12/06 02:22:01;;;;;;;53.80;30.93;;;;;;;;;;5007276;28;20224;-61
2021/12/06 02:24:27;;;;;;;59.90;31.30;;;;;;;;;;4998382;28;20220;-58
2021/12/06 02:26:53;;;;;;;53.90;30.60;;;;;;;;;;5020543;28;20679;-58
2021/12/06 02:29:18;;;;;;;57.70;31.67;;;;;;;;;;5024988;28;20211;-58
2021/12/06 02:31:44;;;;;;;54.70;30.90;;;;;;;;;;5008486;28;20220;-58
2021/12/06 02:34:09;;;;;;;57.47;31.97;;;;;;;;;;5025786;28;20222;-58
2021/12/06 02:36:34;;;;;;;56.60;31.93;;;;;;;;;;5025252;28;20315;-58
2021/12/06 02:39:00;;;;;;;55.78;30.73;;;;;;;;;;5008474;28;20278;-58
2021/12/06 02:41:26;;;;;;;57.40;32.10;;;;;;;;;;5024898;28;20223;-58
2021/12/06 02:43:51;;;;;;;61.95;32.47;;;;;;;;;;5008266;28;20328;-58
2021/12/06 02:46:16;;;;;;;57.40;31.97;;;;;;;;;;4998584;28;20228;-59
2021/12/06 02:48:42;;;;;;;52.70;30.97;;;;;;;;;;4999851;28;20228;-59
2021/12/06 02:51:07;;;;;;;56.53;31.13;;;;;;;;;;5024993;28;20292;-59
2021/12/06 02:53:33;;;;;;;57.92;31.23;;;;;;;;;;5025985;28;20243;-58
2021/12/06 02:56:04;;;;;;;56.30;32.30;;;;;;;;;;5007250;28;20599;-58
2021/12/06 03:01:03;;;;;;;52.33;30.73;;;;;;;;;;5025096;28;20211;-59
2021/12/06 03:03:28;;;;;;;59.07;31.83;;;;;;;;;;5025101;28;20208;-58
2021/12/06 03:05:55;;;;;;;53.53;30.90;;;;;;;;;;4998322;28;20588;-58
2021/12/06 03:08:36;;;;;;;53.93;30.50;;;;;;;;;;4997246;28;20279;-58
2021/12/06 03:11:02;;;;;;;50.60;29.17;;;;;;;;;;5001832;28;20227;-59
2021/12/06 03:13:27;;;;;;;54.13;29.97;;;;;;;;;;5005897;28;20212;-58
2021/12/06 03:15:53;;;;;;;56.15;31.73;;;;;;;;;;5005599;28;20220;-58
2021/12/06 03:18:18;;;;;;;54.50;31.70;;;;;;;;;;5004541;28;20807;-58
2021/12/06 03:20:43;;;;;;;49.70;29.17;;;;;;;;;;4988172;28;20761;-58
2021/12/06 03:23:08;;;;;;;56.67;30.57;;;;;;;;;;5005363;28;20208;-58
2021/12/06 03:25:34;;;;;;;54.73;30.90;;;;;;;;;;5004877;28;20240;-58
2021/12/06 03:28:00;;;;;;;54.43;30.03;;;;;;;;;;4999603;28;20208;-59
2021/12/06 03:30:25;;;;;;;54.60;30.17;;;;;;;;;;5015876;28;20216;-58
2021/12/06 03:32:50;;;;;;;53.87;30.23;;;;;;;;;;5015832;28;20219;-58
2021/12/06 03:35:15;;;;;;;56.30;30.13;;;;;;;;;;5022607;28;20902;-58
2021/12/06 03:37:41;;;;;;;54.60;31.50;;;;;;;;;;5025020;28;20315;-58
2021/12/06 03:40:06;;;;;;;52.47;28.70;;;;;;;;;;5023722;28;20223;-59
2021/12/06 03:42:32;;;;;;;61.17;31.67;;;;;;;;;;5025002;28;21117;-58
2021/12/06 03:44:57;;;;;;;53.63;29.80;;;;;;;;;;5004645;28;20572;-58
2021/12/06 03:47:24;;;;;;;54.60;31.57;;;;;;;;;;5004685;28;20331;-59
2021/12/06 03:49:49;;;;;;;51.00;29.37;;;;;;;;;;5001409;28;20530;-58
2021/12/06 03:52:14;;;;;;;54.40;30.63;;;;;;;;;;4995127;28;20589;-58
2021/12/06 03:54:40;;;;;;;56.83;30.77;;;;;;;;;;4996940;28;20669;-58
2021/12/06 03:57:05;;;;;;;52.57;29.40;;;;;;;;;;5000019;28;20306;-58
2021/12/06 03:59:30;;;;;;;54.70;30.60;;;;;;;;;;5004738;28;20212;-58
2021/12/06 04:01:56;;;;;;;50.43;28.57;;;;;;;;;;5024144;28;21151;-58
2021/12/06 04:04:21;;;;;;;47.37;28.30;;;;;;;;;;5024160;28;20262;-59
2021/12/06 04:06:47;;;;;;;53.20;30.10;;;;;;;;;;5023905;28;20235;-58
2021/12/06 04:09:12;;;;;;;52.57;31.20;;;;;;;;;;5024184;28;20215;-58
2021/12/06 04:11:37;;;;;;;52.97;29.92;;;;;;;;;;5003634;28;20220;-58
2021/12/06 04:14:03;;;;;;;51.03;30.90;;;;;;;;;;4995993;28;20275;-59
2021/12/06 04:16:28;;;;;;;56.03;31.00;;;;;;;;;;4996843;28;20216;-59
2021/12/06 04:18:53;;;;;;;57.77;32.47;;;;;;;;;;5017369;28;20212;-58
2021/12/06 04:21:19;;;;;;;53.83;30.33;;;;;;;;;;5018837;28;20643;-58
2021/12/06 04:23:44;;;;;;;49.85;29.20;;;;;;;;;;5004715;28;20220;-58
2021/12/06 04:26:10;;;;;;;54.67;30.10;;;;;;;;;;5004460;28;20228;-59
2021/12/06 04:28:36;;;;;;;54.03;29.83;;;;;;;;;;5004035;28;20275;-59
2021/12/06 04:31:02;;;;;;;56.00;31.93;;;;;;;;;;5006012;28;20224;-59
2021/12/06 04:33:27;;;;;;;53.30;31.33;;;;;;;;;;5006831;28;20208;-59
2021/12/06 04:35:52;;;;;;;55.33;30.43;;;;;;;;;;4998765;28;20301;-59
2021/12/06 04:38:18;;;;;;;52.63;29.80;;;;;;;;;;5015159;28;20216;-59
2021/12/06 04:40:43;;;;;;;55.60;30.80;;;;;;;;;;5016145;28;20215;-59
2021/12/06 04:43:09;;;;;;;54.30;31.23;;;;;;;;;;5018947;28;20573;-59
2021/12/06 04:45:34;;;;;;;65.03;32.30;;;;;;;;;;4987074;28;20256;-59
2021/12/06 04:47:59;;;;;;;58.83;32.80;;;;;;;;;;5006234;28;20718;-59
2021/12/06 04:50:26;;;;;;;55.80;30.53;;;;;;;;;;5005144;28;20223;-59
2021/12/06 04:52:53;;;;;;;56.60;31.90;;;;;;;;;;5024294;28;20277;-59
2021/12/06 04:55:21;;;;;;;60.20;32.00;;;;;;;;;;5022831;28;20278;-59
2021/12/06 04:57:46;;;;;;;56.30;31.23;;;;;;;;;;5018796;28;20279;-59
2021/12/06 05:00:20;;;;;;;61.13;32.63;;;;;;;;;;5015386;28;20885;-59
2021/12/06 05:02:46;;;;;;;53.30;30.73;;;;;;;;;;5015938;28;20220;-59
2021/12/06 05:05:14;;;;;;;59.50;32.37;;;;;;;;;;5025280;28;20630;-59
2021/12/06 05:07:40;;;;;;;54.83;31.65;;;;;;;;;;5028009;28;20212;-59
2021/12/06 05:10:06;;;;;;;60.60;32.10;;;;;;;;;;5019590;28;20217;-59
2021/12/06 05:12:31;;;;;;;62.53;33.00;;;;;;;;;;5008537;28;20766;-59
2021/12/06 05:14:57;;;;;;;68.30;34.30;;;;;;;;;;5008222;28;20217;-59
2021/12/06 05:17:22;;;;;;;62.53;32.17;;;;;;;;;;5007818;28;20625;-59
2021/12/06 05:19:47;;;;;;;67.93;33.77;;;;;;;;;;5004717;28;20223;-59
2021/12/06 05:22:13;;;;;;;57.40;31.80;;;;;;;;;;4999847;28;20213;-59
2021/12/06 05:24:38;;;;;;;64.83;33.77;;;;;;;;;;4999968;28;20578;-59
2021/12/06 05:27:05;;;;;;;60.93;33.23;;;;;;;;;;5003811;28;20239;-59
2021/12/06 05:29:31;;;;;;;58.70;31.90;;;;;;;;;;4993264;28;20244;-59
2021/12/06 05:31:58;;;;;;;66.00;33.10;;;;;;;;;;5007841;28;20215;-59
2021/12/06 05:34:30;;;;;;;63.13;33.20;;;;;;;;;;5008172;28;20216;-59
2021/12/06 05:36:56;;;;;;;60.70;32.63;;;;;;;;;;5009504;28;20294;-59
2021/12/06 05:39:21;;;;;;;71.43;37.17;;;;;;;;;;5008110;28;20725;-59
2021/12/06 05:41:46;;;;;;;70.53;35.43;;;;;;;;;;5006120;28;20305;-59
2021/12/06 05:44:12;;;;;;;68.63;34.70;;;;;;;;;;5000566;28;20196;-59
2021/12/06 05:46:37;;;;;;;64.97;33.27;;;;;;;;;;4998454;28;20345;-59
2021/12/06 05:49:02;;;;;;;71.70;34.33;;;;;;;;;;5002370;28;20220;-59
2021/12/06 05:51:28;;;;;;;71.17;35.70;;;;;;;;;;5009404;28;20212;-59
2021/12/06 05:53:53;;;;;;;66.27;34.57;;;;;;;;;;5007496;28;20217;-59
2021/12/06 05:56:18;;;;;;;69.85;34.63;;;;;;;;;;5007767;28;20804;-59
2021/12/06 05:58:43;;;;;;;76.67;35.80;;;;;;;;;;5008296;28;20217;-59
2021/12/06 06:01:09;;;;;;;76.27;35.83;;;;;;;;;;5007823;28;20209;-59
2021/12/06 06:03:34;;;;;;;83.23;38.80;;;;;;;;;;5008372;28;20243;-59
2021/12/06 06:06:00;;;;;;;83.13;37.77;;;;;;;;;;4998194;28;20251;-59
2021/12/06 06:08:25;;;;;;;80.80;38.77;;;;;;;;;;4961994;28;20247;-59
2021/12/06 06:10:51;;;;;;;90.20;39.57;;;;;;;;;;4980828;28;20213;-59
2021/12/06 06:13:16;;;;;;;80.90;39.33;;;;;;;;;;4986883;28;20669;-59
2021/12/06 06:15:41;;;;;;;70.93;34.97;;;;;;;;;;4970600;28;20216;-59
2021/12/06 06:18:07;;;;;;;79.60;36.67;;;;;;;;;;4988100;28;20210;-60
2021/12/06 06:20:32;;;;;;;77.07;36.70;;;;;;;;;;4989679;28;21169;-59
2021/12/06 06:22:57;;;;;;;80.80;37.37;;;;;;;;;;4988706;28;20220;-59
2021/12/06 06:25:23;;;;;;;79.97;36.80;;;;;;;;;;4988049;28;20260;-59
2021/12/06 06:27:48;;;;;;;83.20;36.90;;;;;;;;;;4981869;28;20223;-59
2021/12/06 06:30:14;;;;;;;69.73;35.63;;;;;;;;;;4986303;28;20215;-58
2021/12/06 06:32:39;;;;;;;78.17;36.57;;;;;;;;;;4987950;28;20232;-59
2021/12/06 06:35:04;;;;;;;87.37;38.10;;;;;;;;;;4995104;28;20225;-60
2021/12/06 06:37:30;;;;;;;79.80;37.17;;;;;;;;;;5011247;28;20682;-59
2021/12/06 06:39:55;;;;;;;71.67;34.60;;;;;;;;;;5014040;28;20244;-60
2021/12/06 06:42:23;;;;;;;74.30;34.17;;;;;;;;;;5012807;28;20300;-60
2021/12/06 06:44:49;;;;;;;76.20;40.60;;;;;;;;;;5001531;28;20598;-60
2021/12/06 06:47:14;;;;;;;62.07;32.77;;;;;;;;;;5032491;28;20211;-61
2021/12/06 06:49:39;;;;;;;74.40;34.77;;;;;;;;;;5031901;28;20242;-59
2021/12/06 06:52:05;;;;;;;67.60;34.37;;;;;;;;;;5032178;28;20216;-60
2021/12/06 06:54:30;;;;;;;73.47;34.53;;;;;;;;;;5033436;28;20632;-60
2021/12/06 06:56:55;;;;;;;70.73;33.70;;;;;;;;;;5014789;28;20216;-60
2021/12/06 06:59:21;;;;;;;68.60;34.13;;;;;;;;;;5015258;28;20759;-60
2021/12/06 07:01:46;;;;;;;61.70;33.17;;;;;;;;;;5032944;28;20222;-60
2021/12/06 07:04:12;;;;;;;66.67;33.00;;;;;;;;;;5031659;28;20576;-60
2021/12/06 07:06:37;;;;;;;67.43;34.27;;;;;;;;;;5015295;28;20635;-60
2021/12/06 07:09:02;;;;;;;60.90;32.10;;;;;;;;;;5031730;28;20277;-61
2021/12/06 07:11:28;;;;;;;64.57;31.27;;;;;;;;;;5015136;28;20516;-60
2021/12/06 07:13:53;;;;;;;61.80;31.97;;;;;;;;;;5018288;28;20273;-60
2021/12/06 07:16:19;;;;;;;67.83;32.43;;;;;;;;;;5014029;28;20214;-60
2021/12/06 07:18:44;;;;;;;62.37;31.70;;;;;;;;;;5032753;28;20680;-61
2021/12/06 07:21:10;;;;;;;61.50;30.93;;;;;;;;;;5028413;28;20205;-61
2021/12/06 07:23:38;;;;;;;54.33;29.67;;;;;;;;;;4994719;28;20220;-59
2021/12/06 07:26:05;;;;;;;52.28;33.45;;;;;;;;;;4993243;28;20577;-59
2021/12/06 07:28:30;;;;;;;60.40;31.83;;;;;;;;;;5012759;28;20270;-60
2021/12/06 07:30:58;;;;;;;56.07;30.03;;;;;;;;;;5023798;28;20299;-60
2021/12/06 07:33:25;;;;;;;63.40;31.10;;;;;;;;;;5030302;28;20366;-60
2021/12/06 07:35:50;;;;;;;55.90;29.83;;;;;;;;;;5013626;28;20219;-60
2021/12/06 07:38:15;;;;;;;45.50;26.00;;;;;;;;;;5013566;28;20216;-60
2021/12/06 07:40:41;;;;;;;47.50;25.93;;;;;;;;;;5021748;28;20215;-60
2021/12/06 07:43:06;;;;;;;53.17;27.67;;;;;;;;;;5014267;28;20226;-60
2021/12/06 07:45:31;;;;;;;47.93;27.20;;;;;;;;;;5018359;28;20235;-60
2021/12/06 07:47:57;;;;;;;43.47;24.67;;;;;;;;;;5012216;28;20255;-60
2021/12/06 07:50:22;;;;;;;39.13;24.20;;;;;;;;;;5012012;28;20239;-60
2021/12/06 07:52:49;;;;;;;38.93;23.57;;;;;;;;;;4994332;28;20695;-60
2021/12/06 07:55:14;;;;;;;42.63;24.87;;;;;;;;;;5012234;28;20212;-60
2021/12/06 07:57:40;;;;;;;54.30;27.07;;;;;;;;;;5025478;28;20219;-60
2021/12/06 08:00:07;;;;;;;45.40;25.13;;;;;;;;;;5030903;28;20211;-60
2021/12/06 08:02:32;;;;;;;44.13;24.70;;;;;;;;;;5013520;28;20222;-59
2021/12/06 08:05:29;;;;;;;43.17;25.17;;;;;;;;;;5031847;28;20216;-59
2021/12/06 08:07:45;;;;;;;52.20;27.50;;;;;;;;;;5011850;28;20587;-59
2021/12/06 08:10:10;;;;;;;44.43;25.43;;;;;;;;;;5027103;28;20219;-60
2021/12/06 08:12:36;;;;;;;45.50;25.60;;;;;;;;;;5027133;28;20257;-60
2021/12/06 08:15:02;;;;;;;41.90;24.47;;;;;;;;;;5031632;28;20285;-61
2021/12/06 08:17:27;;;;;;;47.83;27.23;;;;;;;;;;5029980;28;20223;-60
2021/12/06 08:19:52;;;;;;;40.27;23.63;;;;;;;;;;5030818;28;20277;-60
2021/12/06 08:22:17;;;;;;;62.90;27.70;;;;;;;;;;5018934;28;20299;-60
2021/12/06 08:24:43;;;;;;;42.67;24.90;;;;;;;;;;5011644;28;20212;-60
2021/12/06 08:27:08;;;;;;;44.83;26.17;;;;;;;;;;5011252;28;20212;-60
2021/12/06 08:29:34;;;;;;;41.77;25.40;;;;;;;;;;5012578;28;20219;-60
2021/12/06 08:31:59;;;;;;;37.83;24.07;;;;;;;;;;5012060;28;20275;-60
2021/12/06 08:34:24;;;;;;;38.17;24.23;;;;;;;;;;5011007;28;20205;-60
2021/12/06 08:36:49;;;;;;;41.63;23.93;;;;;;;;;;5011898;28;20243;-60
2021/12/06 08:39:15;;;;;;;38.80;22.93;;;;;;;;;;5015305;28;20216;-60
2021/12/06 08:41:40;;;;;;;43.97;26.00;;;;;;;;;;5015477;28;20213;-60
2021/12/06 08:44:05;;;;;;;38.60;24.67;;;;;;;;;;5023176;28;20207;-60
2021/12/06 08:46:33;;;;;;;38.33;24.20;;;;;;;;;;5035164;28;20228;-60
2021/12/06 08:49:00;;;;;;;45.57;26.57;;;;;;;;;;5033874;28;20228;-60
2021/12/06 08:51:33;;;;;;;40.90;24.03;;;;;;;;;;5036396;28;20655;-60
2021/12/06 08:54:00;;;;;;;37.37;24.07;;;;;;;;;;5035830;28;20417;-60
2021/12/06 08:56:25;;;;;;;40.23;23.53;;;;;;;;;;5034676;28;20231;-60
2021/12/06 08:58:51;;;;;;;37.17;23.83;;;;;;;;;;5017816;28;20238;-60
2021/12/06 09:01:16;;;;;;;35.73;22.03;;;;;;;;;;5034814;28;20254;-59
2021/12/06 09:03:42;;;;;;;36.43;22.00;;;;;;;;;;5016992;28;20215;-60
2021/12/06 09:06:07;;;;;;;40.60;24.90;;;;;;;;;;5033678;28;20236;-59
2021/12/06 09:08:33;;;;;;;41.60;23.83;;;;;;;;;;5034680;28;20219;-60
2021/12/06 09:10:58;;;;;;;41.50;23.83;;;;;;;;;;5017124;28;20262;-60
2021/12/06 09:13:24;;;;;;;42.50;25.03;;;;;;;;;;5032384;28;20216;-59
2021/12/06 09:15:51;;;;;;;39.93;23.17;;;;;;;;;;5032338;28;20224;-59
2021/12/06 09:18:17;;;;;;;50.90;28.13;;;;;;;;;;5017512;28;20210;-59
2021/12/06 09:20:42;;;;;;;46.83;26.63;;;;;;;;;;5035051;28;20219;-60
2021/12/06 09:23:08;;;;;;;50.30;28.23;;;;;;;;;;5013857;28;20295;-60
2021/12/06 09:25:34;;;;;;;46.40;27.30;;;;;;;;;;5014058;28;20303;-59
2021/12/06 09:27:59;;;;;;;48.40;27.50;;;;;;;;;;5015234;28;20300;-59
2021/12/06 09:30:26;;;;;;;46.73;28.33;;;;;;;;;;5024019;28;20219;-60
2021/12/06 09:32:52;;;;;;;44.63;26.77;;;;;;;;;;5016981;28;20640;-59
2021/12/06 09:35:22;;;;;;;44.00;26.23;;;;;;;;;;5012348;28;20212;-60
2021/12/06 09:37:47;;;;;;;47.13;27.17;;;;;;;;;;5033174;28;20219;-61
2021/12/06 09:40:15;;;;;;;41.80;25.53;;;;;;;;;;5033274;28;20698;-61
2021/12/06 09:42:42;;;;;;;45.53;27.47;;;;;;;;;;5033630;28;20223;-61
2021/12/06 09:45:07;;;;;;;37.83;23.97;;;;;;;;;;5025077;28;20315;-60
2021/12/06 09:47:33;;;;;;;44.33;26.40;;;;;;;;;;4997407;28;20307;-61
2021/12/06 09:49:58;;;;;;;42.17;25.07;;;;;;;;;;5021713;28;20584;-60
2021/12/06 09:52:23;;;;;;;45.43;26.63;;;;;;;;;;5024776;28;20270;-60
2021/12/06 09:54:49;;;;;;;40.97;24.90;;;;;;;;;;5013946;28;20216;-60
2021/12/06 09:57:14;;;;;;;39.70;24.87;;;;;;;;;;5024802;28;20744;-60
2021/12/06 09:59:40;;;;;;;47.70;27.67;;;;;;;;;;5033795;28;20573;-60
2021/12/06 10:02:06;;;;;;;42.53;24.47;;;;;;;;;;5033674;28;20576;-60
2021/12/06 10:04:32;;;;;;;44.13;25.63;;;;;;;;;;5015454;28;20285;-60
2021/12/06 10:06:58;;;;;;;40.27;24.33;;;;;;;;;;5015801;28;20231;-60
2021/12/06 10:09:23;;;;;;;41.37;24.73;;;;;;;;;;5033542;28;20227;-60
2021/12/06 10:11:49;;;;;;;46.63;26.00;;;;;;;;;;5033373;28;20265;-60
2021/12/06 10:14:15;;;;;;;50.43;27.10;;;;;;;;;;5025545;28;20204;-60
2021/12/06 10:16:41;;;;;;;41.57;25.03;;;;;;;;;;5052060;28;20584;-60
2021/12/06 10:19:06;;;;;;;45.57;25.00;;;;;;;;;;5018981;28;20220;-60
2021/12/06 10:21:32;;;;;;;43.67;26.20;;;;;;;;;;5009831;28;20240;-61
2021/12/06 10:23:57;;;;;;;55.37;28.03;;;;;;;;;;5002395;28;20224;-60
2021/12/06 10:26:23;;;;;;;46.17;28.00;;;;;;;;;;5032065;28;20571;-60
2021/12/06 10:28:49;;;;;;;44.87;26.20;;;;;;;;;;5033731;28;20216;-60
2021/12/06 10:31:14;;;;;;;55.57;28.53;;;;;;;;;;5033267;28;20291;-60
2021/12/06 10:33:41;;;;;;;44.60;25.80;;;;;;;;;;5015484;28;20212;-60
2021/12/06 10:36:07;;;;;;;50.40;26.87;;;;;;;;;;5014183;28;20208;-61
2021/12/06 10:38:34;;;;;;;46.63;27.93;;;;;;;;;;5032444;28;20614;-60
2021/12/06 10:41:02;;;;;;;42.97;25.83;;;;;;;;;;5032514;28;20608;-60
2021/12/06 10:43:27;;;;;;;47.67;28.13;;;;;;;;;;5032013;28;20211;-60
2021/12/06 10:45:54;;;;;;;44.03;25.70;;;;;;;;;;5015174;28;20593;-60
2021/12/06 10:48:21;;;;;;;45.47;26.67;;;;;;;;;;5014944;28;20620;-60
2021/12/06 10:50:48;;;;;;;51.30;26.37;;;;;;;;;;5035261;28;20211;-60
2021/12/06 10:53:13;;;;;;;52.93;28.93;;;;;;;;;;5053043;28;20698;-60
2021/12/06 10:55:39;;;;;;;44.70;25.73;;;;;;;;;;5043929;28;20222;-60
2021/12/06 10:58:05;;;;;;;46.33;25.57;;;;;;;;;;5032705;28;20215;-60
2021/12/06 11:00:30;;;;;;;72.27;30.97;;;;;;;;;;5031462;28;20212;-60
2021/12/06 11:02:56;;;;;;;48.60;27.37;;;;;;;;;;5015387;28;20247;-60
2021/12/06 11:05:22;;;;;;;52.90;27.97;;;;;;;;;;5020319;28;20354;-60
2021/12/06 11:07:55;;;;;;;54.93;27.33;;;;;;;;;;5031147;28;20573;-60
2021/12/06 11:10:22;;;;;;;52.97;29.57;;;;;;;;;;4997393;28;20687;-60
2021/12/06 11:12:48;;;;;;;49.03;26.40;;;;;;;;;;5033303;28;20298;-60
2021/12/06 11:15:13;;;;;;;58.60;29.17;;;;;;;;;;5025060;28;20694;-60
2021/12/06 11:17:38;;;;;;;61.43;29.93;;;;;;;;;;5025668;28;20230;-60
2021/12/06 11:20:04;;;;;;;49.13;27.90;;;;;;;;;;5031020;28;20227;-60
2021/12/06 11:22:29;;;;;;;47.80;27.53;;;;;;;;;;4999945;28;20676;-59
2021/12/06 11:24:55;;;;;;;47.20;25.87;;;;;;;;;;5012718;28;20222;-60
2021/12/06 11:27:22;;;;;;;47.03;27.40;;;;;;;;;;5018810;28;20286;-60
2021/12/06 11:29:54;;;;;;;45.53;25.90;;;;;;;;;;5031979;28;20211;-59
2021/12/06 11:32:20;;;;;;;50.27;26.97;;;;;;;;;;5032068;28;20212;-60
2021/12/06 11:34:55;;;;;;;51.70;27.77;;;;;;;;;;5013292;28;20215;-60
2021/12/06 11:37:23;;;;;;;49.93;27.23;;;;;;;;;;5031201;28;20211;-60
2021/12/06 11:39:50;;;;;;;48.67;26.67;;;;;;;;;;5031449;28;20243;-60
2021/12/06 11:42:15;;;;;;;50.33;28.13;;;;;;;;;;5014476;28;20738;-60
2021/12/06 11:44:42;;;;;;;49.10;27.53;;;;;;;;;;5012103;28;20298;-60
2021/12/06 11:47:08;;;;;;;45.47;25.77;;;;;;;;;;5031921;28;20262;-60
2021/12/06 11:49:36;;;;;;;49.40;27.23;;;;;;;;;;5032389;28;20232;-60
2021/12/06 11:52:01;;;;;;;49.33;28.00;;;;;;;;;;5013458;28;20216;-61
2021/12/06 11:54:26;;;;;;;55.03;28.57;;;;;;;;;;5013665;28;20614;-60
2021/12/06 11:56:52;;;;;;;50.67;28.50;;;;;;;;;;5014416;28;20285;-61
2021/12/06 11:59:18;;;;;;;48.27;27.77;;;;;;;;;;5030795;28;20617;-60
2021/12/06 12:01:45;;;;;;;41.93;24.97;;;;;;;;;;5032213;28;20261;-60
2021/12/06 12:04:13;;;;;;;36.97;23.30;;;;;;;;;;5012967;28;20208;-60
2021/12/06 12:06:39;;;;;;;29.50;20.13;;;;;;;;;;5013761;28;20692;-60
2021/12/06 12:09:06;;;;;;;30.83;20.30;;;;;;;;;;5031574;28;20246;-60
2021/12/06 12:11:32;;;;;;;31.43;21.43;;;;;;;;;;5013808;28;20219;-60
2021/12/06 12:13:58;;;;;;;32.47;20.37;;;;;;;;;;5013489;28;20200;-60
2021/12/06 12:16:23;;;;;;;31.53;21.23;;;;;;;;;;5000781;28;20278;-61
2021/12/06 12:18:48;;;;;;;29.77;19.83;;;;;;;;;;5018060;28;20695;-59
2021/12/06 12:21:14;;;;;;;29.30;20.20;;;;;;;;;;5022742;28;20238;-60
2021/12/06 12:23:42;;;;;;;32.00;21.40;;;;;;;;;;5037387;28;20231;-60
2021/12/06 12:26:12;;;;;;;35.33;21.23;;;;;;;;;;5037002;28;20281;-60
2021/12/06 12:28:49;;;;;;;30.57;19.83;;;;;;;;;;5021557;28;20648;-60
2021/12/06 12:31:15;;;;;;;32.60;20.20;;;;;;;;;;5004815;28;20705;-60
2021/12/06 12:33:40;;;;;;;31.70;19.83;;;;;;;;;;5028089;28;20216;-60
2021/12/06 12:36:09;;;;;;;40.17;22.53;;;;;;;;;;5018291;28;20691;-60
2021/12/06 12:38:34;;;;;;;36.43;21.90;;;;;;;;;;5036126;28;20559;-60
2021/12/06 12:41:01;;;;;;;35.33;20.60;;;;;;;;;;5020207;28;20733;-60
2021/12/06 12:43:32;;;;;;;37.70;21.57;;;;;;;;;;5020469;28;21133;-60
2021/12/06 12:45:58;;;;;;;32.53;19.80;;;;;;;;;;5018382;28;20267;-60
2021/12/06 12:48:25;;;;;;;33.67;21.37;;;;;;;;;;4999451;28;20247;-60
2021/12/06 12:51:01;;;;;;;41.30;23.47;;;;;;;;;;5009992;28;20219;-60
2021/12/06 12:53:27;;;;;;;37.93;22.53;;;;;;;;;;5037399;28;20579;-60
2021/12/06 12:55:52;;;;;;;40.53;23.23;;;;;;;;;;5037379;28;20204;-60
2021/12/06 12:58:23;;;;;;;40.37;22.47;;;;;;;;;;5019018;28;20220;-60
2021/12/06 13:00:51;;;;;;;37.43;22.23;;;;;;;;;;5037264;28;20211;-60
2021/12/06 13:03:39;;;;;;;39.60;23.03;;;;;;;;;;5036278;28;20285;-60
2021/12/06 13:06:15;;;;;;;40.70;23.77;;;;;;;;;;5037577;28;20266;-61
2021/12/06 13:08:40;;;;;;;37.77;23.23;;;;;;;;;;5018779;28;20215;-60
2021/12/06 13:11:06;;;;;;;36.03;22.23;;;;;;;;;;5019959;28;20224;-61
2021/12/06 13:13:34;;;;;;;40.80;23.33;;;;;;;;;;5017002;28;20203;-60
2021/12/06 13:16:05;;;;;;;32.70;19.63;;;;;;;;;;5017257;28;20577;-60
2021/12/06 13:18:34;;;;;;;31.63;19.10;;;;;;;;;;5018171;28;20673;-60
2021/12/06 13:21:19;;;;;;;31.10;18.87;;;;;;;;;;5020686;28;20243;-60
2021/12/06 13:23:45;;;;;;;32.20;19.20;;;;;;;;;;5034296;28;20255;-60
2021/12/06 13:26:10;;;;;;;33.87;19.07;;;;;;;;;;5016876;28;20726;-60
2021/12/06 13:28:54;;;;;;;30.97;18.50;;;;;;;;;;5033807;28;20298;-60
2021/12/06 13:31:24;;;;;;;33.97;20.23;;;;;;;;;;5033418;28;20614;-60
2021/12/06 13:33:49;;;;;;;33.23;20.93;;;;;;;;;;5005924;28;20227;-60
2021/12/06 13:36:14;;;;;;;32.23;21.20;;;;;;;;;;5013666;28;20212;-60
2021/12/06 13:38:40;;;;;;;36.70;21.57;;;;;;;;;;5018757;28;20305;-60
2021/12/06 13:41:08;;;;;;;30.53;19.40;;;;;;;;;;5054060;28;20698;-62
2021/12/06 13:43:39;;;;;;;27.87;18.07;;;;;;;;;;5041953;28;20211;-60
2021/12/06 13:46:05;;;;;;;30.17;19.53;;;;;;;;;;4996633;28;20319;-59
2021/12/06 13:48:37;;;;;;;29.07;19.17;;;;;;;;;;5014377;28;20630;-60
2021/12/06 13:51:22;;;;;;;32.73;20.53;;;;;;;;;;4996348;28;20236;-61
2021/12/06 13:53:52;;;;;;;30.83;19.47;;;;;;;;;;5032950;28;20212;-60
2021/12/06 13:56:18;;;;;;;32.83;20.37;;;;;;;;;;5033907;28;20697;-60
2021/12/06 13:58:43;;;;;;;38.47;22.00;;;;;;;;;;5015262;28;20219;-60
2021/12/06 14:01:10;;;;;;;32.20;19.27;;;;;;;;;;4997770;28;20200;-60
2021/12/06 14:03:38;;;;;;;31.00;19.53;;;;;;;;;;4997418;28;20288;-60
2021/12/06 14:06:08;;;;;;;29.50;18.97;;;;;;;;;;4996632;28;20281;-60
2021/12/06 14:08:33;;;;;;;25.67;15.83;;;;;;;;;;4982080;28;20217;-60
2021/12/06 14:10:59;;;;;;;27.53;15.73;;;;;;;;;;4987672;28;20741;-60
2021/12/06 14:13:24;;;;;;;29.73;16.23;;;;;;;;;;5017625;28;20242;-60
2021/12/06 14:15:53;;;;;;;27.87;16.37;;;;;;;;;;5006513;28;20216;-60
2021/12/06 14:18:18;;;;;;;26.47;15.10;;;;;;;;;;5010329;28;20213;-60
2021/12/06 14:20:44;;;;;;;23.87;15.13;;;;;;;;;;4995430;28;20212;-60
2021/12/06 14:23:12;;;;;;;25.23;14.67;;;;;;;;;;5005238;28;20543;-61